Time;durP1;ratioP1;P1;durP2;ratioP2;P2;SDS_P1;SDS_P2;PMS_P1;PMS_P2;Temp;Humidity;BMP_temperature;BMP_pressure;BME280_temperature;BME280_humidity;BME280_pressure;Samples;Min_cycle;Max_cycle;Signal;HPM_P1;HPM_P2
2022/02/12 00:02:20;;;;;;;13.23;3.50;;;;;;;-3.48;100.00;102676.59;5105835;28;20082;-82
2022/02/12 00:04:45;;;;;;;19.80;4.30;;;;;;;-3.38;100.00;102692.97;5088549;28;20077;-80
2022/02/12 00:07:11;;;;;;;9.65;3.05;;;;;;;-3.47;100.00;102675.69;5088591;28;20043;-80
2022/02/12 00:09:36;;;;;;;11.02;2.88;;;;;;;-3.42;100.00;102697.38;5087576;28;20040;-79
2022/02/12 00:12:03;;;;;;;13.20;3.67;;;;;;;-3.36;100.00;102708.63;5104920;28;20084;-80
2022/02/12 00:14:29;;;;;;;19.80;3.28;;;;;;;-3.36;100.00;102700.78;5086901;28;20057;-81
2022/02/12 00:16:54;;;;;;;11.50;2.33;;;;;;;-3.29;100.00;102718.06;5087059;28;20478;-82
2022/02/12 00:19:19;;;;;;;12.75;3.17;;;;;;;-3.34;100.00;102715.53;5085521;28;20020;-84
2022/02/12 00:21:45;;;;;;;8.63;2.60;;;;;;;-3.48;100.00;102710.53;5085804;28;20618;-83
2022/02/12 00:24:10;;;;;;;10.82;2.67;;;;;;;-3.60;100.00;102697.69;5085805;28;20046;-81
2022/02/12 00:26:36;;;;;;;12.43;2.67;;;;;;;-3.54;100.00;102697.56;5085497;28;20413;-80
2022/02/12 00:29:01;;;;;;;10.73;2.47;;;;;;;-3.46;100.00;102710.53;5102136;28;20693;-80
2022/02/12 00:31:27;;;;;;;16.85;4.15;;;;;;;-3.44;100.00;102708.75;5084456;28;20035;-82
2022/02/12 00:33:52;;;;;;;19.45;4.43;;;;;;;-3.34;100.00;102717.28;5084081;28;20456;-82
2022/02/12 00:36:17;;;;;;;13.80;3.50;;;;;;;-3.28;100.00;102725.00;5101241;28;20317;-83
2022/02/12 00:38:43;;;;;;;15.80;5.18;;;;;;;-3.20;100.00;102731.00;5084056;28;20103;-82
2022/02/12 00:41:09;;;;;;;16.15;3.30;;;;;;;-3.16;100.00;102730.06;5083893;28;20032;-82
2022/02/12 00:43:35;;;;;;;17.00;2.85;;;;;;;-3.05;100.00;102738.56;5083432;28;20036;-80
2022/02/12 00:46:00;;;;;;;14.27;3.58;;;;;;;-3.14;100.00;102723.03;5082513;28;20073;-83
2022/02/12 00:48:25;;;;;;;54.90;5.05;;;;;;;-3.11;100.00;102727.38;5099298;28;20093;-83
2022/02/12 00:50:53;;;;;;;10.18;2.70;;;;;;;-3.15;100.00;102725.69;5082183;28;20046;-82
2022/02/12 00:53:18;;;;;;;10.10;3.50;;;;;;;-3.04;100.00;102750.75;5081255;28;20071;-84
2022/02/12 00:55:44;;;;;;;34.35;3.13;;;;;;;-3.06;100.00;102747.28;5096962;28;20028;-84
2022/02/12 00:58:09;;;;;;;16.23;4.70;;;;;;;-2.99;100.00;102758.50;5098499;28;20088;-80
2022/02/12 01:00:34;;;;;;;8.88;3.38;;;;;;;-3.06;100.00;102749.91;5097594;28;20092;-83
2022/02/12 01:03:03;;;;;;;11.35;3.75;;;;;;;-3.00;100.00;102768.13;5097251;28;20104;-81
2022/02/12 01:05:28;;;;;;;12.93;2.63;;;;;;;-2.99;100.00;102759.38;5077372;28;20043;-82
2022/02/12 01:07:54;;;;;;;15.57;2.88;;;;;;;-3.10;100.00;102744.75;5078433;28;20032;-82
2022/02/12 01:10:19;;;;;;;22.13;3.22;;;;;;;-3.09;100.00;102741.25;5079112;28;20477;-81
2022/02/12 01:12:44;;;;;;;9.15;3.88;;;;;;;-3.20;100.00;102738.81;5079849;28;20032;-82
2022/02/12 01:15:10;;;;;;;10.70;2.10;;;;;;;-3.20;100.00;102746.66;5096198;28;20634;-81
2022/02/12 01:17:37;;;;;;;9.68;3.08;;;;;;;-3.19;100.00;102751.84;5080764;28;20019;-81
2022/02/12 01:20:04;;;;;;;12.13;2.13;;;;;;;-3.24;100.00;102753.69;5097742;28;20040;-84
2022/02/12 01:22:29;;;;;;;7.88;2.72;;;;;;;-3.33;100.00;102729.47;5080423;28;20429;-81
2022/02/12 01:24:55;;;;;;;12.13;2.47;;;;;;;-3.41;100.00;102732.19;5098632;28;20024;-82
2022/02/12 01:27:20;;;;;;;14.07;3.75;;;;;;;-3.39;100.00;102730.44;5084986;28;20612;-83
2022/02/12 01:29:46;;;;;;;11.55;2.67;;;;;;;-3.32;100.00;102734.66;5102042;28;20043;-79
2022/02/12 01:32:12;;;;;;;7.10;2.00;;;;;;;-3.07;100.00;102760.38;5085300;28;20583;-82
2022/02/12 01:34:38;;;;;;;9.27;2.47;;;;;;;-3.03;100.00;102755.06;5084124;28;20047;-80
2022/02/12 01:37:06;;;;;;;10.07;2.60;;;;;;;-2.86;100.00;102759.16;5101767;28;20032;-82
2022/02/12 01:39:32;;;;;;;11.45;3.17;;;;;;;-2.95;100.00;102754.97;5085012;28;20035;-82
2022/02/12 01:41:57;;;;;;;7.97;2.70;;;;;;;-2.94;100.00;102746.22;5083431;28;20040;-83
2022/02/12 01:44:32;;;;;;;16.30;2.95;;;;;;;-2.88;100.00;102750.47;5081522;28;20123;-82
2022/02/12 01:46:58;;;;;;;12.35;3.55;;;;;;;-2.95;100.00;102752.34;5081281;28;20039;-83
2022/02/12 01:49:23;;;;;;;6.20;2.25;;;;;;;-2.90;100.00;102752.25;5081704;28;20016;-82
2022/02/12 01:51:49;;;;;;;12.05;2.88;;;;;;;-2.94;100.00;102745.38;5099552;28;20407;-83
2022/02/12 01:54:15;;;;;;;12.52;2.97;;;;;;;-3.15;100.00;102721.31;5082207;28;20047;-81
2022/02/12 01:56:43;;;;;;;11.40;2.90;;;;;;;-3.05;100.00;102738.56;5099786;28;20016;-80
2022/02/12 01:59:08;;;;;;;9.38;2.30;;;;;;;-3.00;100.00;102736.75;5083228;28;20060;-83
2022/02/12 02:01:33;;;;;;;12.13;2.08;;;;;;;-3.02;100.00;102732.41;5082843;28;20036;-82
2022/02/12 02:03:59;;;;;;;9.65;3.38;;;;;;;-2.95;100.00;102734.06;5083300;28;20038;-82
2022/02/12 02:06:24;;;;;;;13.23;3.83;;;;;;;-2.95;100.00;102721.00;5082757;28;20040;-83
2022/02/12 02:08:50;;;;;;;16.95;2.78;;;;;;;-2.87;100.00;102728.69;5100299;28;20035;-82
2022/02/12 02:11:15;;;;;;;13.65;3.03;;;;;;;-2.93;100.00;102718.31;5084966;28;20023;-82
2022/02/12 02:13:41;;;;;;;12.68;2.80;;;;;;;-2.75;100.00;102746.75;5101717;28;20067;-79
2022/02/12 02:16:14;;;;;;;14.38;2.00;;;;;;;-2.73;100.00;102744.97;5083723;28;20032;-82
2022/02/12 02:18:40;;;;;;;6.18;2.45;;;;;;;-2.71;100.00;102743.19;5083753;28;20164;-82
2022/02/12 02:21:06;;;;;;;16.98;2.60;;;;;;;-2.72;100.00;102735.38;5099670;28;20069;-81
2022/02/12 02:23:34;;;;;;;20.70;2.28;;;;;;;-2.72;100.00;102724.91;5095074;28;20044;-82
2022/02/12 02:26:00;;;;;;;12.18;2.40;;;;;;;-2.68;100.00;102724.84;5077546;28;20036;-81
2022/02/12 02:28:26;;;;;;;18.30;3.25;;;;;;;-2.72;100.00;102714.47;5077688;28;20028;-81
2022/02/12 02:30:52;;;;;;;20.30;3.25;;;;;;;-2.74;100.00;102722.31;5078209;28;20387;-80
2022/02/12 02:33:17;;;;;;;27.67;6.65;;;;;;;-2.90;100.00;102694.75;5078681;28;20044;-82
2022/02/12 02:35:43;;;;;;;14.40;2.75;;;;;;;-2.78;100.00;102705.00;5082868;28;20103;-82
2022/02/12 02:38:15;;;;;;;11.15;2.17;;;;;;;-2.76;100.00;102706.69;5077087;28;20115;-82
2022/02/12 02:40:42;;;;;;;10.15;2.90;;;;;;;-2.75;100.00;102712.75;5093172;28;20048;-80
2022/02/12 02:43:09;;;;;;;18.58;3.88;;;;;;;-2.88;100.00;102699.06;5077099;28;20039;-82
2022/02/12 02:45:35;;;;;;;13.27;2.70;;;;;;;-2.99;100.00;102690.56;5075800;28;20040;-80
2022/02/12 02:48:02;;;;;;;27.38;2.85;;;;;;;-3.04;100.00;102688.03;5076056;28;20030;-80
2022/02/12 02:56:01;;;;;;;14.50;3.58;;;;;;;-3.21;100.00;102674.38;5092763;28;20040;-83
2022/02/12 02:58:43;;;;;;;20.25;3.45;;;;;;;-3.27;100.00;102664.91;5092634;28;20477;-80
2022/02/12 03:01:12;;;;;;;11.68;3.63;;;;;;;-3.21;100.00;102674.38;5075392;28;20036;-81
2022/02/12 03:03:39;;;;;;;19.45;3.75;;;;;;;-3.22;100.00;102668.31;5075463;28;20036;-79
2022/02/12 03:06:06;;;;;;;8.55;2.45;;;;;;;-3.20;100.00;102676.13;5074688;28;20024;-82
2022/02/12 03:08:31;;;;;;;12.73;2.88;;;;;;;-3.25;100.00;102672.75;5075151;28;20058;-82
2022/02/12 03:10:57;;;;;;;12.27;4.70;;;;;;;-3.20;100.00;102676.13;5092125;28;20039;-81
2022/02/12 03:13:23;;;;;;;16.42;4.78;;;;;;;-3.06;100.00;102694.19;5076426;28;20051;-82
2022/02/12 03:15:49;;;;;;;18.27;5.63;;;;;;;-3.01;100.00;102695.81;5091273;28;20476;-79
2022/02/12 03:18:15;;;;;;;17.00;4.38;;;;;;;-3.03;100.00;102694.97;5081833;28;20051;-84
2022/02/12 03:20:40;;;;;;;15.68;5.65;;;;;;;-3.02;100.00;102687.97;5105471;28;20038;-81
2022/02/12 03:23:06;;;;;;;20.60;6.65;;;;;;;-2.93;100.00;102705.25;5103879;28;20047;-80
2022/02/12 03:25:32;;;;;;;28.17;6.15;;;;;;;-3.02;100.00;102693.22;5102104;28;20040;-83
2022/02/12 03:27:59;;;;;;;25.30;7.88;;;;;;;-3.00;100.00;102700.16;5087351;28;20473;-82
2022/02/12 03:30:30;;;;;;;17.88;5.93;;;;;;;-3.11;100.00;102681.19;5086165;28;20066;-81
2022/02/12 03:32:56;;;;;;;18.75;8.35;;;;;;;-3.06;100.00;102689.81;5104602;28;20032;-79
2022/02/12 03:35:22;;;;;;;23.08;9.05;;;;;;;-2.94;100.00;102714.84;5085673;28;20381;-81
2022/02/12 03:37:51;;;;;;;19.67;8.15;;;;;;;-2.89;100.00;102709.56;5102127;28;20405;-83
2022/02/12 03:40:17;;;;;;;27.73;7.60;;;;;;;-2.94;100.00;102696.56;5085073;28;20039;-82
2022/02/12 03:42:44;;;;;;;22.65;8.85;;;;;;;-2.85;100.00;102713.84;5083999;28;20024;-81
2022/02/12 03:45:09;;;;;;;28.10;9.38;;;;;;;-3.05;100.00;102680.22;5083051;28;20047;-82
2022/02/12 03:47:35;;;;;;;23.20;9.25;;;;;;;-2.99;100.00;102690.56;5082742;28;20043;-84
2022/02/12 03:50:02;;;;;;;19.30;8.48;;;;;;;-3.15;100.00;102671.66;5083918;28;20054;-81
2022/02/12 03:52:28;;;;;;;23.85;8.40;;;;;;;-3.17;100.00;102672.59;5081842;28;20047;-81
2022/02/12 03:54:53;;;;;;;23.45;8.43;;;;;;;-3.14;100.00;102680.38;5098697;28;20036;-84
2022/02/12 03:57:19;;;;;;;22.40;9.10;;;;;;;-3.19;100.00;102677.84;5081551;28;20115;-83
2022/02/12 03:59:44;;;;;;;29.20;10.07;;;;;;;-3.13;100.00;102690.81;5098329;28;20428;-82
2022/02/12 04:02:10;;;;;;;22.05;9.00;;;;;;;-3.30;100.00;102670.19;5081203;28;20063;-84
2022/02/12 04:04:35;;;;;;;21.70;9.35;;;;;;;-3.20;100.00;102676.97;5079541;28;20020;-82
2022/02/12 04:07:00;;;;;;;21.55;10.25;;;;;;;-3.30;100.00;102674.53;5096530;28;20047;-82
2022/02/12 04:09:27;;;;;;;19.83;9.02;;;;;;;-3.31;100.00;102670.22;5080308;28;20028;-81
2022/02/12 04:11:52;;;;;;;24.27;9.88;;;;;;;-3.35;100.00;102671.16;5095740;28;20061;-81
2022/02/12 04:14:18;;;;;;;22.92;9.63;;;;;;;-3.43;100.00;102672.13;5078518;28;20039;-83
2022/02/12 04:16:43;;;;;;;27.38;11.02;;;;;;;-3.50;100.00;102667.91;5078615;28;20031;-80
2022/02/12 04:19:08;;;;;;;24.88;10.88;;;;;;;-3.37;100.00;102679.03;5079086;28;20539;-80
2022/02/12 04:21:34;;;;;;;27.70;12.05;;;;;;;-3.21;100.00;102695.28;5079288;28;20044;-84
2022/02/12 04:23:59;;;;;;;33.28;13.02;;;;;;;-3.24;100.00;102684.91;5096331;28;20066;-82
2022/02/12 04:26:25;;;;;;;26.58;11.23;;;;;;;-3.10;100.00;102702.94;5079668;28;20029;-82
2022/02/12 04:28:51;;;;;;;18.02;9.82;;;;;;;-3.13;100.00;102698.66;5097541;28;20062;-81
2022/02/12 04:31:16;;;;;;;22.35;9.77;;;;;;;-3.19;100.00;102688.28;5097470;28;20051;-81
2022/02/12 04:33:41;;;;;;;39.50;13.23;;;;;;;-3.19;100.00;102688.28;5099884;28;20405;-82
2022/02/12 04:36:10;;;;;;;25.23;10.52;;;;;;;-3.19;100.00;102686.53;5099395;28;20471;-83
2022/02/12 04:38:35;;;;;;;34.67;12.13;;;;;;;-3.12;100.00;102684.69;5092709;28;20104;-82
2022/02/12 04:41:03;;;;;;;27.95;11.80;;;;;;;-3.04;100.00;102688.03;5077314;28;20099;-80
2022/02/12 04:43:28;;;;;;;24.88;11.35;;;;;;;-3.03;100.00;102700.19;5072355;28;20051;-83
2022/02/12 04:45:53;;;;;;;22.20;11.88;;;;;;;-3.06;100.00;102684.56;5071539;28;20032;-83
2022/02/12 04:48:19;;;;;;;33.47;12.05;;;;;;;-2.96;100.00;102695.72;5072077;28;20458;-83
2022/02/12 04:50:44;;;;;;;33.97;12.20;;;;;;;-3.10;100.00;102671.59;5071234;28;20405;-83
2022/02/12 04:53:11;;;;;;;28.88;12.70;;;;;;;-3.07;100.00;102676.75;5088412;28;20032;-80
2022/02/12 04:55:36;;;;;;;39.72;13.15;;;;;;;-2.91;100.00;102686.03;5089049;28;20026;-82
2022/02/12 04:58:02;;;;;;;43.25;12.70;;;;;;;-2.71;100.00;102701.38;5071328;28;20032;-83
2022/02/12 05:00:28;;;;;;;40.92;12.98;;;;;;;-2.67;100.00;102695.19;5074251;28;20047;-82
2022/02/12 05:02:54;;;;;;;33.75;11.65;;;;;;;-2.60;100.00;102690.69;5091974;28;20024;-83
2022/02/12 05:05:19;;;;;;;28.20;12.88;;;;;;;-2.52;100.00;102685.31;5091256;28;20036;-82
2022/02/12 05:07:44;;;;;;;25.17;12.80;;;;;;;-2.57;100.00;102688.03;5074544;28;20035;-82
2022/02/12 05:10:10;;;;;;;30.60;14.07;;;;;;;-2.59;100.00;102668.88;5074333;28;20127;-82
2022/02/12 05:12:36;;;;;;;25.23;12.68;;;;;;;-2.58;100.00;102673.22;5075084;28;20122;-82
2022/02/12 05:15:01;;;;;;;31.73;14.65;;;;;;;-2.51;100.00;102684.41;5074423;28;20646;-83
2022/02/12 05:17:27;;;;;;;27.83;13.18;;;;;;;-2.50;100.00;102683.53;5091348;28;20164;-83
2022/02/12 05:19:52;;;;;;;32.67;12.90;;;;;;;-2.63;100.00;102647.16;5074125;28;20047;-82
2022/02/12 05:22:17;;;;;;;29.73;13.32;;;;;;;-2.44;100.00;102657.25;5074508;28;20075;-83
2022/02/12 05:24:43;;;;;;;31.38;13.68;;;;;;;-2.43;100.00;102658.97;5074285;28;20062;-83
2022/02/12 05:27:09;;;;;;;34.60;13.73;;;;;;;-2.41;100.00;102657.16;5073905;28;20020;-83
2022/02/12 05:29:35;;;;;;;35.60;12.27;;;;;;;-2.42;100.00;102645.84;5072532;28;20090;-81
2022/02/12 05:32:00;;;;;;;;;;;;;;;-2.24;100.00;102660.31;5073434;28;20156;-81
2022/02/12 05:34:26;;;;;;;34.55;11.98;;;;;;;-2.33;100.00;102624.72;5072309;28;20385;-80
2022/02/12 05:36:51;;;;;;;38.92;12.95;;;;;;;-2.23;100.00;102637.59;5072514;28;20035;-82
2022/02/12 05:39:17;;;;;;;27.45;12.85;;;;;;;-2.19;100.00;102632.28;5090479;28;20074;-83
2022/02/12 05:41:42;;;;;;;28.08;10.95;;;;;;;-2.20;100.00;102627.94;5073883;28;20036;-82
2022/02/12 05:44:09;;;;;;;31.65;11.23;;;;;;;-2.10;100.00;102615.50;5088812;28;20036;-82
2022/02/12 05:46:35;;;;;;;25.80;10.98;;;;;;;-2.03;100.00;102611.00;5072992;28;20042;-82
2022/02/12 05:49:01;;;;;;;34.50;13.02;;;;;;;-2.21;100.00;102586.94;5072891;28;20031;-80
2022/02/12 05:51:30;;;;;;;32.45;12.75;;;;;;;-2.19;100.00;102581.69;5089843;28;20481;-82
2022/02/12 05:53:58;;;;;;;24.80;11.57;;;;;;;-2.10;100.00;102584.09;5089439;28;20043;-82
2022/02/12 05:56:23;;;;;;;27.73;11.98;;;;;;;-2.26;100.00;102552.19;5090859;28;20482;-82
2022/02/12 05:58:49;;;;;;;55.72;10.80;;;;;;;-2.25;100.00;102548.66;5072692;28;20039;-83
2022/02/12 06:01:14;;;;;;;31.40;13.18;;;;;;;-2.23;100.00;102551.25;5072645;28;20122;-81
2022/02/12 06:03:40;;;;;;;24.75;10.40;;;;;;;-2.24;100.00;102545.16;5072832;28;20909;-82
2022/02/12 06:06:05;;;;;;;32.97;11.43;;;;;;;-2.26;100.00;102538.25;5089695;28;20067;-82
2022/02/12 06:08:31;;;;;;;25.52;10.35;;;;;;;-2.24;100.00;102523.38;5072920;28;20043;-80
2022/02/12 06:10:56;;;;;;;;;;;;;;;-2.14;100.00;102535.34;5072723;28;20031;-83
2022/02/12 06:13:22;;;;;;;49.13;14.32;;;;;;;-2.21;100.00;102531.16;5072877;28;20281;-80
2022/02/12 06:15:47;;;;;;;28.90;11.45;;;;;;;-2.37;100.00;102512.31;5089136;28;20043;-81
2022/02/12 06:18:13;;;;;;;32.78;10.02;;;;;;;-2.43;100.00;102508.13;5072279;28;20094;-82
2022/02/12 06:20:39;;;;;;;29.90;11.55;;;;;;;-2.43;100.00;102505.50;5072591;28;20547;-81
2022/02/12 06:23:04;;;;;;;23.80;12.45;;;;;;;-2.41;100.00;102498.47;5072493;28;20028;-81
2022/02/12 06:25:31;;;;;;;32.55;12.65;;;;;;;-2.38;100.00;102506.25;5089039;28;20603;-82
2022/02/12 06:27:58;;;;;;;28.92;11.02;;;;;;;-2.29;100.00;102505.16;5073242;28;20512;-81
2022/02/12 06:30:23;;;;;;;;;;;;;;;-2.14;100.00;102509.16;5074020;28;20439;-83
2022/02/12 06:32:51;;;;;;;18.50;9.38;;;;;;;-2.25;100.00;102498.94;5080656;28;19908;-81
2022/02/12 06:35:16;;;;;;;26.70;9.18;;;;;;;-2.40;100.00;102465.31;5078400;28;20042;-83
2022/02/12 06:37:42;;;;;;;31.08;9.90;;;;;;;-2.23;100.00;102486.69;5094770;28;20032;-83
2022/02/12 06:40:08;;;;;;;23.92;8.65;;;;;;;-2.30;100.00;102485.13;5089442;28;20063;-82
2022/02/12 06:42:33;;;;;;;23.33;8.73;;;;;;;-2.35;100.00;102487.00;5089337;28;20047;-82
2022/02/12 06:44:59;;;;;;;23.75;8.18;;;;;;;-2.40;100.00;102483.63;5089529;28;20040;-81
2022/02/12 06:47:24;;;;;;;23.20;8.30;;;;;;;-2.27;100.00;102484.19;5072374;28;20160;-83
2022/02/12 06:49:50;;;;;;;24.15;7.07;;;;;;;-2.08;100.00;102493.31;5072358;28;20035;-83
2022/02/12 06:52:15;;;;;;;22.15;8.30;;;;;;;-2.04;100.00;102488.84;5090467;28;20084;-81
2022/02/12 06:54:41;;;;;;;33.90;9.52;;;;;;;-2.13;100.00;102479.50;5071419;28;20122;-82
2022/02/12 06:57:07;;;;;;;20.73;7.85;;;;;;;-1.90;100.00;102494.59;5088971;28;20031;-82
2022/02/12 06:59:35;;;;;;;22.65;7.90;;;;;;;-1.91;100.00;102474.56;5071971;28;20028;-82
2022/02/12 07:02:00;;;;;;;18.20;7.28;;;;;;;-1.91;100.00;102459.72;5072284;28;20057;-81
2022/02/12 07:04:29;;;;;;;23.92;7.97;;;;;;;-1.72;100.00;102475.78;5088910;28;20130;-82
2022/02/12 07:06:54;;;;;;;18.67;6.95;;;;;;;-1.66;100.00;102463.41;5089378;28;20044;-83
2022/02/12 07:09:20;;;;;;;23.08;7.32;;;;;;;-1.56;100.00;102459.66;5071854;28;20027;-81
2022/02/12 07:11:45;;;;;;;22.08;7.35;;;;;;;-1.50;100.00;102462.09;5090756;28;20489;-82
2022/02/12 07:14:10;;;;;;;21.70;7.38;;;;;;;-1.56;100.00;102447.41;5088688;28;20249;-81
2022/02/12 07:16:36;;;;;;;17.97;6.87;;;;;;;-1.44;100.00;102448.84;5072048;28;20039;-79
2022/02/12 07:19:01;;;;;;;17.80;6.95;;;;;;;-1.48;100.00;102431.47;5072242;28;20290;-82
2022/02/12 07:21:27;;;;;;;28.90;8.68;;;;;;;-1.43;100.00;102432.19;5090137;28;20064;-83
2022/02/12 07:23:52;;;;;;;18.98;6.45;;;;;;;-1.38;100.00;102419.84;5088284;28;20393;-83
2022/02/12 07:26:17;;;;;;;15.30;6.70;;;;;;;-1.21;100.00;102431.59;5088938;28;20136;-83
2022/02/12 07:28:44;;;;;;;14.73;7.15;;;;;;;-1.10;100.00;102422.50;5089658;28;20081;-83
2022/02/12 07:31:12;;;;;;;11.30;5.82;;;;;;;-0.92;100.00;102428.94;5089773;28;20389;-82
2022/02/12 07:33:37;;;;;;;14.65;6.07;;;;;;;-0.62;100.00;102431.53;5091832;28;20118;-82
2022/02/12 07:36:04;;;;;;;11.88;5.20;;;;;;;-0.74;100.00;102403.06;5091454;28;20063;-81
2022/02/12 07:38:29;;;;;;;11.82;5.85;;;;;;;-0.62;100.00;102402.66;5074353;28;20030;-83
2022/02/12 07:40:54;;;;;;;18.20;5.82;;;;;;;-0.53;100.00;102396.25;5083460;28;20298;-82
2022/02/12 07:43:20;;;;;;;13.00;6.67;;;;;;;-0.46;100.00;102384.66;5089614;28;20119;-82
2022/02/12 07:45:45;;;;;;;15.83;6.13;;;;;;;-0.19;100.00;102390.72;5068139;28;20826;-81
2022/02/12 07:48:11;;;;;;;19.70;4.93;;;;;;;-0.19;100.00;102374.97;5069075;28;20313;-81
2022/02/12 07:50:36;;;;;;;16.45;4.88;;;;;;;-0.04;98.92;102371.81;5088409;28;20513;-81
2022/02/12 07:53:04;;;;;;;22.00;6.38;;;;;;;-0.25;97.96;102336.66;5088232;28;20028;-82
2022/02/12 07:55:30;;;;;;;20.58;6.22;;;;;;;-0.05;97.14;102335.97;5087949;28;20028;-82
2022/02/12 07:57:57;;;;;;;12.00;3.72;;;;;;;0.06;96.34;102335.56;5071639;28;20086;-81
2022/02/12 08:00:22;;;;;;;16.38;5.45;;;;;;;-0.13;95.49;102322.25;5088449;28;20068;-81
2022/02/12 08:02:49;;;;;;;23.08;5.80;;;;;;;0.21;95.00;102339.41;5071677;28;20074;-82
2022/02/12 08:05:14;;;;;;;;;;;;;;;0.29;93.88;102308.47;5088703;28;20059;-82
2022/02/12 08:07:40;;;;;;;15.68;4.75;;;;;;;0.29;93.26;102281.34;5089319;28;19958;-81
2022/02/12 08:12:53;;;;;;;20.63;5.10;;;;;;;0.66;91.77;102290.44;5089112;28;20085;-81
2022/02/12 08:15:18;;;;;;;;;;;;;;;1.09;90.77;102300.06;5088948;28;20115;-81
2022/02/12 08:17:44;;;;;;;13.38;4.85;;;;;;;1.23;89.18;102252.97;5090446;28;19963;-79
2022/02/12 08:20:10;;;;;;;13.73;4.03;;;;;;;1.39;88.12;102218.97;5088396;28;20047;-82
2022/02/12 08:22:36;;;;;;;11.95;4.43;;;;;;;1.44;86.58;102195.06;5071484;28;20038;-80
2022/02/12 08:25:02;;;;;;;10.73;4.40;;;;;;;1.24;85.94;102154.72;5071689;28;20517;-82
2022/02/12 08:27:28;;;;;;;14.45;4.07;;;;;;;0.96;85.42;102120.00;5071280;28;20830;-81
2022/02/12 08:29:54;;;;;;;12.65;4.07;;;;;;;1.32;85.28;102164.91;5087892;28;20036;-81
2022/02/12 08:32:21;;;;;;;17.85;5.00;;;;;;;1.25;84.71;102131.88;5089193;28;20169;-82
2022/02/12 08:34:47;;;;;;;14.57;4.55;;;;;;;1.64;84.08;102138.91;5070600;28;20135;-81
2022/02/12 08:37:13;;;;;;;14.35;5.50;;;;;;;1.83;83.66;102150.28;5070918;28;20119;-80
2022/02/12 08:39:38;;;;;;;13.40;3.42;;;;;;;1.93;82.18;102076.09;5088614;28;20040;-81
2022/02/12 08:42:04;;;;;;;13.03;3.60;;;;;;;1.95;82.13;102090.91;5071703;28;20055;-80
2022/02/12 08:44:30;;;;;;;24.75;6.43;;;;;;;1.85;81.21;102029.03;5070657;28;20028;-81
2022/02/12 08:46:55;;;;;;;15.80;4.03;;;;;;;1.76;81.11;102026.88;5089287;28;20047;-80
2022/02/12 08:49:20;;;;;;;19.60;4.80;;;;;;;2.06;80.95;102074.56;5071877;28;20295;-81
2022/02/12 08:51:47;;;;;;;10.70;3.55;;;;;;;2.07;80.34;102042.88;5089877;28;20069;-81
2022/02/12 08:54:13;;;;;;;14.93;3.22;;;;;;;2.26;79.97;102041.97;5089139;28;20028;-82
2022/02/12 08:56:40;;;;;;;14.07;3.70;;;;;;;3.47;78.71;102074.34;5089983;28;20780;-81
2022/02/12 08:59:07;;;;;;;11.98;3.55;;;;;;;3.75;76.06;101936.31;5069924;28;20504;-80
2022/02/12 09:01:33;;;;;;;10.93;4.85;;;;;;;3.83;74.93;101891.78;5070055;28;20047;-80
2022/02/12 09:03:59;;;;;;;17.20;4.22;;;;;;;5.29;72.65;101893.28;5098209;28;20074;-81
2022/02/12 09:06:24;;;;;;;12.05;3.70;;;;;;;4.67;69.85;101638.94;5076957;28;20020;-80
2022/02/12 09:08:51;;;;;;;19.30;4.97;;;;;;;3.92;69.73;101600.59;5061219;28;20036;-80
2022/02/12 09:11:21;;;;;;;14.38;4.38;;;;;;;4.03;70.28;101695.06;5068945;28;20024;-81
2022/02/12 09:13:48;;;;;;;16.58;4.75;;;;;;;4.38;70.02;101752.78;5072177;28;20032;-78
2022/02/12 09:16:14;;;;;;;17.15;4.95;;;;;;;3.76;70.61;101687.06;5092177;28;20020;-79
2022/02/12 09:18:39;;;;;;;20.30;3.90;;;;;;;3.55;71.09;101740.25;5069408;28;20028;-80
2022/02/12 09:21:05;;;;;;;13.98;3.92;;;;;;;3.21;71.92;101757.25;5070068;28;20516;-80
2022/02/12 09:23:30;;;;;;;12.37;4.47;;;;;;;3.16;71.71;101736.41;5069345;28;20521;-79
2022/02/12 09:25:56;;;;;;;13.77;4.25;;;;;;;2.95;72.34;101756.16;5091585;28;20062;-79
2022/02/12 09:28:21;;;;;;;12.73;4.07;;;;;;;3.54;72.49;101853.91;5073915;28;20040;-79
2022/02/12 09:30:46;;;;;;;16.27;4.07;;;;;;;4.12;71.29;101839.84;5087885;28;20362;-80
2022/02/12 09:33:12;;;;;;;22.17;5.80;;;;;;;3.51;70.80;101711.47;5086810;28;20032;-80
2022/02/12 09:35:37;;;;;;;16.03;4.87;;;;;;;3.76;70.30;101711.66;5086052;28;20040;-80
2022/02/12 09:38:02;;;;;;;10.43;3.57;;;;;;;3.40;70.66;101680.47;5086443;28;20028;-80
2022/02/12 09:40:31;;;;;;;19.52;4.95;;;;;;;3.49;71.39;101756.47;5086713;28;20087;-80
2022/02/12 09:43:01;;;;;;;11.93;3.75;;;;;;;3.69;71.49;101823.91;5086552;28;20510;-80
2022/02/12 09:45:35;;;;;;;15.35;4.07;;;;;;;4.34;69.99;101773.25;5069932;28;20387;-79
2022/02/12 09:48:01;;;;;;;19.52;5.82;;;;;;;3.62;70.11;101664.13;5091190;28;20035;-79
2022/02/12 09:50:26;;;;;;;12.60;3.83;;;;;;;4.31;69.65;101738.22;5090476;28;20381;-79
2022/02/12 09:52:54;;;;;;;16.45;4.68;;;;;;;4.12;69.27;101669.81;5073287;28;20039;-80
2022/02/12 09:55:21;;;;;;;10.15;4.30;;;;;;;3.95;68.94;101600.41;5070240;28;20031;-77
2022/02/12 09:57:47;;;;;;;17.83;4.43;;;;;;;4.45;68.72;101687.97;5072970;28;20619;-80
2022/02/12 10:00:17;;;;;;;15.00;3.88;;;;;;;4.28;68.48;101637.97;5090929;28;20093;-80
2022/02/12 10:02:44;;;;;;;24.35;4.15;;;;;;;4.85;67.86;101695.91;5089383;28;20092;-79
2022/02/12 10:05:22;;;;;;;17.67;4.13;;;;;;;5.42;66.21;101629.34;5072412;28;20157;-79
2022/02/12 10:07:50;;;;;;;17.55;5.18;;;;;;;4.96;66.43;101568.16;5072703;28;20039;-80
2022/02/12 10:10:21;;;;;;;9.98;3.50;;;;;;;5.31;65.65;101578.94;5073005;28;20032;-80
2022/02/12 10:12:48;;;;;;;14.07;4.03;;;;;;;5.17;64.43;101452.00;5089967;28;20036;-79
2022/02/12 10:15:26;;;;;;;14.48;4.53;;;;;;;5.27;64.10;101453.03;5072465;28;20115;-79
2022/02/12 10:17:59;;;;;;;14.25;3.92;;;;;;;5.20;63.67;101409.44;5090661;28;20051;-79
2022/02/12 10:20:29;;;;;;;15.43;3.33;;;;;;;5.55;63.99;101535.75;5088784;28;20078;-79
2022/02/12 10:23:15;;;;;;;13.35;3.95;;;;;;;5.10;64.26;101499.22;5072725;28;20339;-77
2022/02/12 10:25:45;;;;;;;10.07;3.22;;;;;;;5.71;63.69;101552.25;5088964;28;20058;-77
2022/02/12 10:28:13;;;;;;;13.38;3.45;;;;;;;6.16;62.43;101488.91;5089725;28;20028;-80
2022/02/12 10:30:39;;;;;;;13.70;3.58;;;;;;;6.06;61.43;101365.94;5072398;28;20031;-80
2022/02/12 10:33:07;;;;;;;8.13;2.88;;;;;;;5.83;60.88;101267.81;5073083;28;20161;-78
2022/02/12 10:35:34;;;;;;;10.48;3.30;;;;;;;5.54;61.09;101253.31;5072452;28;20032;-79
2022/02/12 10:38:05;;;;;;;18.40;4.38;;;;;;;6.09;61.05;101360.41;5090027;28;20406;-78
2022/02/12 10:40:33;;;;;;;12.25;3.53;;;;;;;5.02;61.12;101120.50;5089339;28;20042;-79
2022/02/12 10:42:59;;;;;;;15.25;3.72;;;;;;;4.86;62.29;101248.63;5072747;28;20036;-80
2022/02/12 10:45:26;;;;;;;20.30;4.03;;;;;;;5.24;61.84;101287.31;5089665;28;20035;-78
2022/02/12 10:47:53;;;;;;;11.98;3.40;;;;;;;5.20;61.37;101232.06;5090899;28;20032;-78
2022/02/12 10:50:20;;;;;;;13.45;3.55;;;;;;;5.45;61.34;101303.38;5089612;28;20055;-79
2022/02/12 10:52:51;;;;;;;18.08;4.53;;;;;;;6.00;60.52;101319.56;5091465;28;20028;-78
2022/02/12 10:55:31;;;;;;;10.25;3.20;;;;;;;5.87;60.27;101266.59;5089304;28;20401;-78
2022/02/12 10:58:01;;;;;;;11.15;4.38;;;;;;;5.19;59.84;101059.13;5088643;28;20034;-79
2022/02/12 11:00:28;;;;;;;12.05;3.50;;;;;;;5.65;60.45;101256.84;5088972;28;20028;-78
2022/02/12 11:02:55;;;;;;;12.80;3.15;;;;;;;5.97;60.52;101321.56;5090839;28;20505;-78
2022/02/12 11:05:22;;;;;;;11.48;3.80;;;;;;;6.20;59.58;101266.75;5089832;28;20555;-79
2022/02/12 11:07:58;;;;;;;11.90;3.20;;;;;;;6.69;57.88;101197.34;5072838;28;20119;-78
2022/02/12 11:10:23;;;;;;;12.02;3.38;;;;;;;7.09;57.84;101263.06;5088986;28;20043;-79
2022/02/12 11:12:49;;;;;;;18.20;3.43;;;;;;;6.80;56.89;101073.53;5088204;28;20207;-78
2022/02/12 11:15:15;;;;;;;9.93;2.95;;;;;;;7.28;56.18;101136.69;5071620;28;20413;-78
2022/02/12 11:17:42;;;;;;;11.88;3.17;;;;;;;7.63;54.69;101047.75;5071654;28;20497;-79
2022/02/12 11:20:11;;;;;;;10.95;2.75;;;;;;;7.95;54.28;101088.28;5087463;28;20169;-78